createdAt,value
2019-04-14T00:00:36.341Z,102245.16
2019-04-14T00:03:15.699Z,102244.52
2019-04-14T00:05:45.139Z,102242.22
2019-04-14T00:08:13.921Z,102243.61
2019-04-14T00:10:42.607Z,102242.36
2019-04-14T00:13:13.175Z,102247.73
2019-04-14T00:15:46.747Z,102249.18
2019-04-14T00:18:12.463Z,102244.23
2019-04-14T00:20:41.145Z,102236.63
2019-04-14T00:23:11.304Z,102236.91
2019-04-14T00:25:43.280Z,102233.84
2019-04-14T00:28:11.633Z,102234.17
2019-04-14T00:30:40.601Z,102232.38
2019-04-14T00:33:14.889Z,102234.17
2019-04-14T00:35:45.379Z,102225.25
2019-04-14T00:38:17.456Z,102228.05
2019-04-14T00:41:00.692Z,102233.94
2019-04-14T00:43:31.115Z,102229.70
2019-04-14T00:46:02.686Z,102229.03
2019-04-14T00:48:32.062Z,102232.86
2019-04-14T00:51:00.866Z,102236.13
2019-04-14T00:53:31.702Z,102238.22
2019-04-14T00:56:01.834Z,102230.09
2019-04-14T00:58:30.654Z,102231.54
2019-04-14T01:01:00.557Z,102229.05
2019-04-14T01:03:29.198Z,102229.74
2019-04-14T01:05:58.985Z,102225.24
2019-04-14T01:08:27.828Z,102224.05
2019-04-14T01:10:56.702Z,102235.30
2019-04-14T01:13:26.695Z,102231.38
2019-04-14T01:16:03.903Z,102240.58
2019-04-14T01:18:25.998Z,102237.78
2019-04-14T01:20:55.672Z,102237.50
2019-04-14T01:23:24.462Z,102232.09
2019-04-14T01:25:54.200Z,102223.56
2019-04-14T01:28:24.302Z,102226.30
2019-04-14T01:30:54.359Z,102230.85
2019-04-14T01:33:23.374Z,102231.05
2019-04-14T01:35:53.156Z,102229.81
2019-04-14T01:38:23.239Z,102231.78
2019-04-14T01:40:53.146Z,102231.87
2019-04-14T01:43:29.967Z,102227.52
2019-04-14T01:46:08.952Z,102230.34
2019-04-14T01:48:30.043Z,102232.12
2019-04-14T01:51:07.083Z,102235.47
2019-04-14T01:53:40.741Z,102234.27
2019-04-14T01:56:12.317Z,102104.27
2019-04-14T01:58:49.187Z,102231.25
2019-04-14T02:01:19.619Z,102235.66
2019-04-14T02:03:48.384Z,102239.90
2019-04-14T02:06:17.978Z,102236.41
2019-04-14T02:08:47.960Z,102234.06
2019-04-14T02:11:16.800Z,102245.45
2019-04-14T02:13:46.447Z,102246.52
2019-04-14T02:16:25.921Z,102245.47
2019-04-14T02:18:47.019Z,102248.05
2019-04-14T02:21:17.232Z,102241.79
2019-04-14T02:23:46.043Z,102235.98
2019-04-14T02:26:15.499Z,102242.16
2019-04-14T02:28:44.296Z,102244.80
2019-04-14T02:31:29.759Z,102241.16
2019-04-14T02:34:07.419Z,102242.41
2019-04-14T02:36:47.696Z,102242.74
2019-04-14T02:39:13.931Z,102236.47
2019-04-14T02:41:54.234Z,102234.66
2019-04-14T02:44:20.813Z,102231.84
2019-04-14T02:46:49.768Z,102229.00
2019-04-14T02:49:13.745Z,102236.56
2019-04-14T02:51:54.046Z,102243.22
2019-04-14T02:59:36.320Z,102246.72
2019-04-14T03:01:50.730Z,102251.02
2019-04-14T03:04:20.944Z,102248.69
2019-04-14T03:06:48.518Z,102248.10
2019-04-14T03:09:32.686Z,102254.17
2019-04-14T03:14:25.433Z,102246.08
2019-04-14T03:17:25.074Z,102250.10
2019-04-14T03:20:05.358Z,102250.10
2019-04-14T03:39:00.304Z,102250.58
2019-04-14T03:41:25.726Z,102250.44
2019-04-14T03:43:54.495Z,102245.45
2019-04-14T03:46:25.476Z,102249.86
2019-04-14T03:51:28.076Z,102243.91
2019-04-14T03:53:55.944Z,102249.17
2019-04-14T03:56:10.371Z,102245.14
2019-04-14T03:58:37.828Z,102244.67
2019-04-14T04:01:08.348Z,102252.19
2019-04-14T04:04:00.698Z,102257.02
2019-04-14T04:06:29.407Z,102252.94
2019-04-14T04:08:58.133Z,102245.77
2019-04-14T04:11:27.928Z,102253.81
2019-04-14T04:13:56.830Z,102257.83
2019-04-14T04:16:31.314Z,102254.39
2019-04-14T04:19:06.372Z,102249.78
2019-04-14T04:21:50.901Z,102249.36
2019-04-14T04:27:29.073Z,102257.83
2019-04-14T04:32:47.264Z,102264.97
2019-04-14T04:35:17.627Z,102264.30
2019-04-14T04:37:47.964Z,102264.44
2019-04-14T04:40:18.344Z,102265.69
2019-04-14T04:42:48.292Z,102258.59
2019-04-14T04:45:17.258Z,102261.13
2019-04-14T04:47:46.999Z,102260.22
2019-04-14T04:50:15.770Z,102264.23
2019-04-14T04:52:45.160Z,102268.16
2019-04-14T04:55:17.764Z,102265.33
2019-04-14T04:57:48.460Z,102264.86
2019-04-14T05:00:19.728Z,102270.22
2019-04-14T05:02:48.450Z,102270.98
2019-04-14T05:05:53.621Z,102275.42
2019-04-14T05:08:22.387Z,102275.42
2019-04-14T05:10:52.715Z,102274.42
2019-04-14T05:13:22.664Z,102278.34
2019-04-14T05:15:53.256Z,102275.52
2019-04-14T05:18:22.359Z,102279.38
2019-04-14T05:20:51.140Z,102282.39
2019-04-14T05:23:21.209Z,102280.13
2019-04-14T05:25:50.068Z,102280.07
2019-04-14T05:28:19.845Z,102283.56
2019-04-14T05:30:48.881Z,102291.67
2019-04-14T05:33:18.541Z,102289.52
2019-04-14T05:35:50.956Z,102293.32
2019-04-14T05:38:33.910Z,102289.24
2019-04-14T05:41:02.942Z,102293.83
2019-04-14T05:43:41.531Z,102286.38
2019-04-14T05:46:03.403Z,102284.88
2019-04-14T05:48:33.637Z,102287.19
2019-04-14T05:51:02.593Z,102288.31
2019-04-14T05:53:31.249Z,102286.44
2019-04-14T05:55:59.958Z,102294.44
2019-04-14T05:58:31.836Z,102293.81
2019-04-14T06:01:00.498Z,102290.42
2019-04-14T06:03:29.942Z,102292.09
2019-04-14T06:05:58.851Z,102296.22
2019-04-14T06:08:27.549Z,102295.42
2019-04-14T06:10:59.373Z,102297.30
2019-04-14T06:13:28.078Z,102293.96
2019-04-14T06:15:56.910Z,102295.99
2019-04-14T06:18:25.616Z,102293.91
2019-04-14T06:20:54.379Z,102169.07
2019-04-14T06:23:23.324Z,102296.54
2019-04-14T06:25:52.087Z,102302.56
2019-04-14T06:28:20.748Z,102300.14
2019-04-14T06:31:08.964Z,102297.93
2019-04-14T06:33:39.773Z,102298.81
2019-04-14T06:36:28.275Z,102296.25
2019-04-14T06:39:04.618Z,102298.23
2019-04-14T06:41:33.340Z,102240.37
2019-04-14T06:44:04.864Z,102312.78
2019-04-14T06:46:34.904Z,102311.37
2019-04-14T06:49:05.231Z,102321.75
2019-04-14T06:51:33.994Z,102330.20
2019-04-14T06:54:02.682Z,102322.02
2019-04-14T06:56:31.433Z,102327.61
2019-04-14T06:59:00.184Z,102325.89
2019-04-14T07:01:28.956Z,102330.05
2019-04-14T07:03:57.715Z,102331.22
2019-04-14T07:06:26.479Z,102330.70
2019-04-14T07:08:58.095Z,102325.77
2019-04-14T07:11:26.924Z,102329.54
2019-04-14T07:13:58.943Z,102331.31
2019-04-14T07:16:30.735Z,102327.65
2019-04-14T07:18:59.407Z,102322.05
2019-04-14T07:21:46.224Z,102323.91
2019-04-14T07:24:18.234Z,102316.52
2019-04-14T07:26:51.605Z,102328.02
2019-04-14T07:29:33.232Z,102329.61
2019-04-14T07:32:20.138Z,102331.91
2019-04-14T07:34:59.266Z,102330.02
2019-04-14T07:37:32.329Z,102321.88
2019-04-14T07:40:11.887Z,102328.30
2019-04-14T07:42:57.198Z,102336.97
2019-04-14T07:45:27.528Z,102336.64
2019-04-14T07:47:57.874Z,102341.78
2019-04-14T07:50:40.018Z,102342.34
2019-04-14T07:56:10.514Z,102342.27
2019-04-14T07:58:41.372Z,102351.08
2019-04-14T08:01:13.157Z,102353.92
2019-04-14T08:04:00.487Z,102345.45
2019-04-14T08:06:29.230Z,102349.49
2019-04-14T08:08:57.966Z,102347.81
2019-04-14T08:11:26.708Z,102347.41
2019-04-14T08:13:55.445Z,102346.62
2019-04-14T08:16:24.229Z,102347.38
2019-04-14T08:18:52.965Z,102350.14
2019-04-14T08:21:22.869Z,102338.36
2019-04-14T08:23:51.684Z,102350.94
2019-04-14T08:26:20.516Z,102355.05
2019-04-14T08:28:52.025Z,102356.13
2019-04-14T08:31:20.738Z,102352.70
2019-04-14T08:33:49.472Z,102358.87
2019-04-14T08:36:18.233Z,102351.72
2019-04-14T08:38:46.902Z,102354.31
2019-04-14T08:41:15.666Z,102356.09
2019-04-14T08:43:49.269Z,102363.34
2019-04-14T08:46:19.615Z,102350.02
2019-04-14T08:48:55.713Z,102344.45
2019-04-14T08:51:31.807Z,102346.66
2019-04-14T08:54:02.126Z,102338.78
2019-04-14T08:56:32.461Z,102336.99
2019-04-14T08:59:18.946Z,102333.24
2019-04-14T09:01:58.370Z,102333.94
2019-04-14T09:04:41.046Z,102335.53
2019-04-14T09:07:22.075Z,102340.41
2019-04-14T09:10:01.588Z,102340.70
2019-04-14T09:12:34.940Z,102340.92
2019-04-14T09:15:04.279Z,102346.40
2019-04-14T09:17:33.108Z,102349.91
2019-04-14T09:20:02.201Z,102349.54
2019-04-14T09:22:31.677Z,102353.67
2019-04-14T09:25:01.311Z,102362.84
2019-04-14T09:27:31.402Z,102354.50
2019-04-14T09:30:00.204Z,102355.49
2019-04-14T09:32:30.160Z,102355.20
2019-04-14T09:35:01.155Z,102362.30
2019-04-14T09:37:30.111Z,102359.45
2019-04-14T09:40:01.736Z,102364.63
2019-04-14T09:42:30.524Z,102362.55
2019-04-14T09:44:59.402Z,102360.34
2019-04-14T09:47:28.236Z,102360.16
2019-04-14T09:49:56.951Z,102365.56
2019-04-14T09:52:25.671Z,102369.05
2019-04-14T09:54:54.547Z,102368.41
2019-04-14T09:57:23.323Z,102360.72
2019-04-14T09:59:52.265Z,102366.05
2019-04-14T10:02:21.069Z,102379.88
2019-04-14T10:05:11.465Z,102369.72
2019-04-14T10:07:44.831Z,102229.25
2019-04-14T10:10:13.636Z,102374.47
2019-04-14T10:12:42.341Z,102374.47
2019-04-14T10:15:11.115Z,102378.52
2019-04-14T10:17:39.854Z,102380.58
2019-04-14T10:20:08.681Z,102386.23
2019-04-14T10:22:37.331Z,102377.72
2019-04-14T10:25:06.385Z,102379.08
2019-04-14T10:27:39.351Z,102388.78
2019-04-14T10:30:12.156Z,102386.47
2019-04-14T10:32:40.861Z,102384.16
2019-04-14T10:35:09.631Z,102386.84
2019-04-14T10:37:38.311Z,102386.67
2019-04-14T10:40:07.090Z,102388.28
2019-04-14T10:42:44.250Z,102385.47
2019-04-14T10:45:18.121Z,102390.80
2019-04-14T10:47:45.607Z,102382.69
2019-04-14T10:50:14.304Z,102388.39
2019-04-14T10:52:42.989Z,102391.54
2019-04-14T10:55:11.965Z,102385.69
2019-04-14T10:57:40.938Z,102393.45
2019-04-14T11:00:11.756Z,102386.97
2019-04-14T11:02:47.981Z,102393.72
2019-04-14T11:05:16.723Z,102385.95
2019-04-14T11:07:45.716Z,102382.24
2019-04-14T11:10:16.255Z,102381.42
2019-04-14T11:12:44.963Z,102384.12
2019-04-14T11:15:16.488Z,102382.55
2019-04-14T11:17:45.222Z,102388.88
2019-04-14T11:20:16.442Z,102380.00
2019-04-14T11:22:45.406Z,102383.36
2019-04-14T11:25:14.142Z,102385.75
2019-04-14T11:27:42.819Z,102381.86
2019-04-14T11:30:15.114Z,102377.14
2019-04-14T11:33:03.373Z,102383.51
2019-04-14T11:35:36.562Z,102384.73
2019-04-14T11:38:07.043Z,102383.61
2019-04-14T11:40:43.350Z,102381.22
2019-04-14T11:43:13.461Z,102385.11
2019-04-14T11:45:42.373Z,102385.13
2019-04-14T11:48:11.436Z,102381.95
2019-04-14T11:50:40.388Z,102384.80
2019-04-14T11:53:12.625Z,102387.03
2019-04-14T11:55:43.781Z,102387.26
2019-04-14T11:58:20.285Z,102387.16
2019-04-14T12:01:06.565Z,102389.93
2019-04-14T12:03:36.921Z,102392.17
2019-04-14T12:06:15.596Z,102390.26
2019-04-14T12:08:45.921Z,102392.81
2019-04-14T12:11:14.678Z,102392.02
2019-04-14T12:13:45.562Z,102389.44
2019-04-14T12:16:14.504Z,102388.09
2019-04-14T12:18:43.306Z,102393.08
2019-04-14T12:21:12.155Z,102394.91
2019-04-14T12:23:43.702Z,102400.92
2019-04-14T12:26:13.969Z,102392.25
2019-04-14T12:28:42.929Z,102394.31
2019-04-14T12:31:13.108Z,102403.24
2019-04-14T12:33:42.061Z,102397.36
2019-04-14T12:36:12.918Z,102407.14
2019-04-14T12:38:41.763Z,102400.55
2019-04-14T12:41:12.572Z,102406.24
2019-04-14T12:43:57.855Z,102405.30
2019-04-14T12:46:43.426Z,102403.88
2019-04-14T12:49:16.357Z,102401.81
2019-04-14T12:51:55.447Z,102402.08
2019-04-14T12:54:25.508Z,102399.94
2019-04-14T12:56:54.293Z,102406.50
2019-04-14T12:59:23.840Z,102397.62
2019-04-14T13:02:12.723Z,102398.93
2019-04-14T13:04:41.526Z,102394.02
2019-04-14T13:07:10.425Z,102394.65
2019-04-14T13:09:39.780Z,102399.63
2019-04-14T13:12:10.326Z,102393.97
2019-04-14T13:14:43.086Z,102389.69
2019-04-14T13:17:11.837Z,102393.03
2019-04-14T13:19:41.541Z,102392.89
2019-04-14T13:22:10.364Z,102384.71
2019-04-14T13:24:40.753Z,102391.05
2019-04-14T13:27:09.810Z,102386.77
2019-04-14T13:29:38.518Z,102388.91
2019-04-14T13:32:07.505Z,102385.58
2019-04-14T13:34:36.279Z,102389.77
2019-04-14T13:37:06.659Z,102386.98
2019-04-14T13:39:35.382Z,102389.99
2019-04-14T13:42:04.075Z,102389.99
2019-04-14T13:44:35.679Z,102207.23
2019-04-14T13:47:04.502Z,102388.08
2019-04-14T13:49:33.227Z,102386.48
2019-04-14T13:52:01.927Z,102387.55
2019-04-14T13:54:30.701Z,102394.53
2019-04-14T13:56:59.443Z,102385.66
2019-04-14T13:59:31.075Z,102382.87
2019-04-14T14:01:59.860Z,102386.22
2019-04-14T14:04:28.637Z,102381.09
2019-04-14T14:06:57.429Z,102387.77
2019-04-14T14:09:26.388Z,102387.34
2019-04-14T14:12:06.946Z,102391.26
2019-04-14T14:14:49.234Z,102388.50
2019-04-14T14:17:21.388Z,102387.20
2019-04-14T14:19:51.699Z,102389.57
2019-04-14T14:22:22.032Z,102390.69
2019-04-14T14:24:52.370Z,102380.74
2019-04-14T14:27:21.117Z,102378.45
2019-04-14T14:29:49.909Z,102382.80
2019-04-14T14:32:23.160Z,102378.48
2019-04-14T14:34:52.030Z,102375.83
2019-04-14T14:37:47.417Z,102373.88
2019-04-14T14:40:17.126Z,102373.88
2019-04-14T14:42:45.845Z,102372.36
2019-04-14T14:45:19.247Z,102370.09
2019-04-14T14:47:51.040Z,102371.58
2019-04-14T14:50:33.447Z,102374.36
2019-04-14T14:53:11.865Z,102379.89
2019-04-14T14:55:32.656Z,102372.44
2019-04-14T14:58:01.451Z,102376.98
2019-04-14T15:00:32.170Z,102374.86
2019-04-14T15:03:02.481Z,102383.95
2019-04-14T15:05:34.167Z,102382.60
2019-04-14T15:08:02.913Z,102381.09
2019-04-14T15:10:31.729Z,102380.59
2019-04-14T15:13:00.504Z,102382.39
2019-04-14T15:15:31.855Z,102384.33
2019-04-14T15:18:02.542Z,102374.81
2019-04-14T15:20:31.310Z,102371.25
2019-04-14T15:23:00.275Z,102375.92
2019-04-14T15:25:30.909Z,102367.11
2019-04-14T15:28:01.366Z,102368.87
2019-04-14T15:30:30.405Z,102371.38
2019-04-14T15:32:59.394Z,102368.30
2019-04-14T15:35:28.291Z,102368.52
2019-04-14T15:37:57.656Z,102368.97
2019-04-14T15:40:26.611Z,102373.59
2019-04-14T15:42:55.621Z,102374.50
2019-04-14T15:45:27.275Z,102368.77
2019-04-14T15:47:56.835Z,102372.13
2019-04-14T15:50:27.260Z,102379.17
2019-04-14T15:52:58.159Z,102381.67
2019-04-14T15:55:27.061Z,102379.13
2019-04-14T15:58:00.219Z,102384.75
2019-04-14T16:00:42.822Z,102377.98
2019-04-14T16:03:13.144Z,102380.23
2019-04-14T16:05:43.609Z,102383.59
2019-04-14T16:08:13.973Z,102380.02
2019-04-14T16:10:44.427Z,102380.69
2019-04-14T16:13:14.745Z,102386.99
2019-04-14T16:15:45.051Z,102383.39
2019-04-14T16:18:21.407Z,102383.38
2019-04-14T16:20:50.169Z,102382.16
2019-04-14T16:23:18.872Z,102378.97
2019-04-14T16:25:49.182Z,102382.53
2019-04-14T16:32:05.174Z,102385.89
2019-04-14T16:34:35.643Z,102385.09
2019-04-14T16:37:04.462Z,102392.17
2019-04-14T16:39:33.229Z,102388.30
2019-04-14T16:42:01.990Z,102393.73
2019-04-14T16:44:30.786Z,102393.52
2019-04-14T16:47:02.566Z,102393.51
2019-04-14T16:49:31.711Z,102392.16
2019-04-14T16:52:11.145Z,102403.40
2019-04-14T16:54:41.690Z,102396.02
2019-04-14T16:57:29.116Z,102391.48
2019-04-14T16:59:58.327Z,102388.97
2019-04-14T17:02:28.436Z,102396.37
2019-04-14T17:04:57.162Z,102392.47
2019-04-14T17:07:25.898Z,102396.52
2019-04-14T17:09:56.320Z,102394.12
2019-04-14T17:12:26.699Z,102398.46
2019-04-14T17:21:01.488Z,102400.38
2019-04-14T17:26:49.246Z,102402.06
2019-04-14T17:29:19.580Z,102407.97
2019-04-14T17:31:59.099Z,102401.44
2019-04-14T17:34:30.779Z,102409.09
2019-04-14T17:37:10.130Z,102405.67
2019-04-14T17:39:58.619Z,102408.30
2019-04-14T17:42:30.145Z,102413.48
2019-04-14T17:45:12.636Z,102416.41
2019-04-14T17:47:58.445Z,102417.68
2019-04-14T17:50:40.968Z,102420.38
2019-04-14T17:53:13.168Z,102421.66
2019-04-14T17:56:00.264Z,102429.20
2019-04-14T17:58:30.790Z,102428.82
2019-04-14T18:01:20.858Z,102433.66
2019-04-14T18:03:51.183Z,102438.83
2019-04-14T18:09:22.133Z,102442.09
2019-04-14T18:12:08.967Z,102446.55
2019-04-14T18:14:39.286Z,102448.05
2019-04-14T18:17:24.753Z,102448.30
2019-04-14T18:20:00.892Z,102453.03
2019-04-14T18:22:29.660Z,102459.41
2019-04-14T18:24:58.404Z,102452.09
2019-04-14T18:27:27.228Z,102460.75
2019-04-14T18:30:09.908Z,102464.17
2019-04-14T18:32:45.836Z,102465.67
2019-04-14T18:35:21.963Z,102473.39
2019-04-14T18:38:07.576Z,102473.69
2019-04-14T18:40:54.281Z,102477.09
2019-04-14T18:43:33.597Z,102474.58
2019-04-14T18:46:06.691Z,102478.77
2019-04-14T18:48:37.038Z,102481.63
2019-04-14T18:51:21.079Z,102481.33
2019-04-14T18:54:00.519Z,102489.02
2019-04-14T18:59:38.858Z,102489.41
2019-04-14T19:02:08.163Z,102482.09
2019-04-14T19:04:36.969Z,102492.27
2019-04-14T19:07:05.729Z,102500.06
2019-04-14T19:09:34.543Z,102493.23
2019-04-14T19:12:09.658Z,102495.28
2019-04-14T19:14:40.063Z,102492.03
2019-04-14T19:17:26.562Z,102496.89
2019-04-14T19:20:01.959Z,102500.13
2019-04-14T19:22:29.053Z,102368.69
2019-04-14T19:25:34.192Z,102507.50
2019-04-14T19:28:03.093Z,102509.48
2019-04-14T19:30:31.892Z,102513.39
2019-04-14T19:33:00.715Z,102520.52
2019-04-14T19:35:32.435Z,102516.95
2019-04-14T19:38:01.316Z,102516.56
2019-04-14T19:40:30.077Z,102517.67
2019-04-14T19:42:58.973Z,102519.11
2019-04-14T19:45:27.745Z,102521.23
2019-04-14T19:47:56.538Z,102523.00
2019-04-14T19:50:25.275Z,102520.68
2019-04-14T19:52:54.065Z,102524.28
2019-04-14T19:55:26.737Z,102528.78
2019-04-14T19:57:56.955Z,102533.00
2019-04-14T20:00:27.286Z,102536.17
2019-04-14T20:02:56.307Z,102538.39
2019-04-14T20:05:24.989Z,102537.59
2019-04-14T20:07:56.853Z,102547.35
2019-04-14T20:10:27.688Z,102539.98
2019-04-14T20:12:56.473Z,102542.30
2019-04-14T20:15:26.805Z,102539.13
2019-04-14T20:17:57.319Z,102547.22
2019-04-14T20:20:33.470Z,102548.16
2019-04-14T20:23:20.370Z,102543.17
2019-04-14T20:26:07.406Z,102540.54
2019-04-14T20:28:53.491Z,102545.00
2019-04-14T20:31:26.775Z,102472.48
2019-04-14T20:33:58.145Z,102539.81
2019-04-14T20:36:26.809Z,102549.36
2019-04-14T20:38:55.588Z,102551.41
2019-04-14T20:41:24.363Z,102541.64
2019-04-14T20:43:53.169Z,102549.84
2019-04-14T20:46:23.393Z,102546.56
2019-04-14T20:48:58.877Z,102548.56
2019-04-14T20:51:37.298Z,102553.31
2019-04-14T20:54:05.535Z,102554.83
2019-04-14T20:56:34.215Z,102549.21
2019-04-14T20:59:03.008Z,102548.18
2019-04-14T21:01:33.327Z,102547.77
2019-04-14T21:04:03.677Z,102550.33
2019-04-14T21:06:43.170Z,102552.93
2019-04-14T21:09:28.402Z,102552.75
2019-04-14T21:12:01.747Z,102556.73
2019-04-14T21:14:35.001Z,102558.87
2019-04-14T21:17:07.549Z,102558.70
2019-04-14T21:19:41.026Z,102558.16
2019-04-14T21:22:17.456Z,102556.50
2019-04-14T21:24:47.789Z,102557.05
2019-04-14T21:27:21.298Z,102562.97
2019-04-14T21:29:51.662Z,102556.95
2019-04-14T21:32:24.942Z,102561.63
2019-04-14T21:35:02.451Z,102557.50
2019-04-14T21:37:38.685Z,102561.86
2019-04-14T21:40:14.509Z,102561.93
2019-04-14T21:42:43.827Z,102495.45
2019-04-14T21:45:12.878Z,102566.95
2019-04-14T21:47:41.631Z,102568.36
2019-04-14T21:50:13.607Z,102572.00
2019-04-14T21:52:43.930Z,102572.00
2019-04-14T21:55:12.810Z,102580.75
2019-04-14T21:57:43.139Z,102579.09
2019-04-14T22:00:30.516Z,102578.50
2019-04-14T22:03:16.819Z,102579.95
2019-04-14T22:06:03.976Z,102578.50
2019-04-14T22:08:40.321Z,102576.22
2019-04-14T22:11:10.776Z,102585.06
2019-04-14T22:13:42.668Z,102589.42
2019-04-14T22:16:11.945Z,102589.19
2019-04-14T22:18:40.888Z,102590.22
2019-04-14T22:21:10.149Z,102595.91
2019-04-14T22:23:38.948Z,102604.01
2019-04-14T22:26:08.369Z,102600.14
2019-04-14T22:28:39.777Z,102600.69
2019-04-14T22:31:08.188Z,102603.39
2019-04-14T22:33:37.949Z,102562.75
2019-04-14T22:36:07.220Z,102608.54
2019-04-14T22:38:37.616Z,102607.07
2019-04-14T22:41:06.436Z,102610.70
2019-04-14T22:43:36.663Z,102603.95
2019-04-14T22:46:05.550Z,102603.57
2019-04-14T22:48:35.947Z,102608.65
2019-04-14T22:51:04.682Z,102608.80
2019-04-14T22:53:34.983Z,102608.72
2019-04-14T22:56:07.042Z,102612.89
2019-04-14T22:58:35.826Z,102615.30
2019-04-14T23:01:12.660Z,102616.39
2019-04-14T23:03:43.127Z,102618.70
2019-04-14T23:06:22.625Z,102620.98
2019-04-14T23:09:03.007Z,102619.09
2019-04-14T23:11:36.160Z,102617.16
2019-04-14T23:14:12.692Z,102619.86
2019-04-14T23:16:59.543Z,102627.41
2019-04-14T23:19:34.986Z,102625.38
2019-04-14T23:22:07.979Z,102614.83
2019-04-14T23:24:45.600Z,102625.00
2019-04-14T23:27:14.392Z,102615.56
2019-04-14T23:29:43.196Z,102625.20
2019-04-14T23:32:11.947Z,102626.06
2019-04-14T23:34:40.681Z,102624.36
2019-04-14T23:37:14.330Z,102626.96
2019-04-14T23:39:43.078Z,102626.37
2019-04-14T23:42:11.895Z,102620.28
2019-04-14T23:44:40.648Z,102628.09
2019-04-14T23:47:09.448Z,102619.74
2019-04-14T23:49:38.318Z,102621.22
2019-04-14T23:52:11.600Z,102623.30
2019-04-14T23:54:41.026Z,102617.11
2019-04-14T23:57:14.676Z,102615.76
2019-04-14T23:59:46.448Z,102614.41
